Time;durP1;ratioP1;P1;durP2;ratioP2;P2;SDS_P1;SDS_P2;PMS_P1;PMS_P2;Temp;Humidity;BMP_temperature;BMP_pressure;BME280_temperature;BME280_humidity;BME280_pressure;Samples;Min_cycle;Max_cycle;Signal;HPM_P1;HPM_P2
2022/09/29 00:00:13;;;;;;;1.48;0.70;;;6.10;99.90;;;;;;5011365;28;20374;-79
2022/09/29 00:02:39;;;;;;;1.40;0.55;;;6.20;99.90;;;;;;5028157;28;20032;-79
2022/09/29 00:05:05;;;;;;;1.20;0.60;;;6.20;99.90;;;;;;5010515;28;20026;-77
2022/09/29 00:07:31;;;;;;;1.35;0.65;;;6.10;99.90;;;;;;5028174;28;20025;-80
2022/09/29 00:09:57;;;;;;;1.80;0.70;;;6.10;99.90;;;;;;5028556;28;20030;-79
2022/09/29 00:12:23;;;;;;;1.30;0.80;;;6.00;99.90;;;;;;5027685;28;20510;-79
2022/09/29 00:14:49;;;;;;;1.25;0.60;;;6.00;99.90;;;;;;5027964;28;20389;-79
2022/09/29 00:17:15;;;;;;;1.40;0.70;;;6.00;99.90;;;;;;5027019;28;20036;-79
2022/09/29 00:19:41;;;;;;;1.30;0.68;;;6.00;99.90;;;;;;5027265;28;20026;-80
2022/09/29 00:22:06;;;;;;;1.55;0.80;;;6.00;99.90;;;;;;5027961;28;20167;-80
2022/09/29 00:24:33;;;;;;;1.65;0.70;;;6.10;99.90;;;;;;5011819;28;20033;-79
2022/09/29 00:26:59;;;;;;;1.65;0.70;;;6.00;99.90;;;;;;5028308;28;20112;-79
2022/09/29 00:29:26;;;;;;;1.35;0.63;;;6.10;99.90;;;;;;5027930;28;20029;-79
2022/09/29 00:31:51;;;;;;;1.95;0.50;;;6.10;99.90;;;;;;5028965;28;20091;-79
2022/09/29 00:34:17;;;;;;;2.20;0.93;;;6.20;99.90;;;;;;5027154;28;20112;-80
2022/09/29 00:36:43;;;;;;;1.30;0.70;;;6.30;99.90;;;;;;5028499;28;20029;-78
2022/09/29 00:39:09;;;;;;;1.27;0.68;;;6.20;99.90;;;;;;5011115;28;22117;-80
2022/09/29 00:41:37;;;;;;;1.30;0.80;;;6.00;99.90;;;;;;5011507;28;20029;-77
2022/09/29 00:44:13;;;;;;;1.20;0.60;;;6.10;99.90;;;;;;5011201;28;20037;-79
2022/09/29 00:46:53;;;;;;;1.83;0.60;;;6.00;99.90;;;;;;5043595;28;20465;-79
2022/09/29 00:49:36;;;;;;;1.55;0.70;;;5.90;99.90;;;;;;5043425;28;20196;-80
2022/09/29 00:52:27;;;;;;;1.77;0.70;;;5.90;99.90;;;;;;5027394;28;20033;-80
2022/09/29 00:54:59;;;;;;;1.60;0.70;;;5.90;99.90;;;;;;5027301;28;20349;-79
2022/09/29 00:57:31;;;;;;;2.15;0.70;;;5.90;99.90;;;;;;5028527;28;20037;-79
2022/09/29 01:00:07;;;;;;;1.30;0.70;;;5.80;99.90;;;;;;5028547;28;20029;-79
2022/09/29 01:02:37;;;;;;;2.40;0.88;;;5.70;99.90;;;;;;5042496;28;20390;-79
2022/09/29 01:05:07;;;;;;;1.00;0.60;;;5.80;99.90;;;;;;5028030;28;20025;-79
2022/09/29 01:07:32;;;;;;;1.60;0.65;;;5.80;99.90;;;;;;5026625;28;20315;-78
2022/09/29 01:09:59;;;;;;;1.60;0.77;;;5.80;99.90;;;;;;5010970;28;20717;-79
2022/09/29 01:12:25;;;;;;;3.55;0.80;;;5.70;99.90;;;;;;5027934;28;20065;-79
2022/09/29 01:14:53;;;;;;;1.70;0.70;;;5.70;99.90;;;;;;5028284;28;20036;-80
2022/09/29 01:17:20;;;;;;;1.40;0.70;;;5.60;99.90;;;;;;5026981;28;20029;-79
2022/09/29 01:20:04;;;;;;;1.55;0.88;;;5.60;99.90;;;;;;5011129;28;20034;-79
2022/09/29 01:22:54;;;;;;;1.40;0.70;;;5.50;99.90;;;;;;5008899;28;20116;-79
2022/09/29 01:25:39;;;;;;;;;;;5.40;99.90;;;;;;5043586;28;20036;-79
2022/09/29 01:28:10;;;;;;;1.17;0.50;;;5.50;99.90;;;;;;5043265;28;19956;-80
2022/09/29 01:30:48;;;;;;;1.58;0.60;;;5.40;99.90;;;;;;5042983;28;20053;-77
2022/09/29 01:33:32;;;;;;;1.42;0.80;;;5.40;99.90;;;;;;5041454;28;20025;-79
2022/09/29 01:35:58;;;;;;;1.38;0.70;;;5.40;99.90;;;;;;5026392;28;20116;-78
2022/09/29 01:38:47;;;;;;;5.75;0.93;;;5.40;99.90;;;;;;5009577;28;20579;-78
2022/09/29 01:41:13;;;;;;;1.40;0.70;;;5.30;99.90;;;;;;5026641;28;20037;-78
2022/09/29 01:44:22;;;;;;;1.40;0.70;;;5.30;99.90;;;;;;5024560;28;20044;-78
2022/09/29 01:47:10;;;;;;;1.58;0.70;;;5.30;99.90;;;;;;5026070;28;20038;-79
2022/09/29 01:49:45;;;;;;;2.05;0.90;;;5.30;99.90;;;;;;5009342;28;20099;-79
2022/09/29 01:52:18;;;;;;;1.95;0.70;;;5.30;99.90;;;;;;5025734;28;20045;-79
2022/09/29 01:54:56;;;;;;;1.40;0.70;;;5.30;99.90;;;;;;5027805;28;20458;-79
2022/09/29 01:57:34;;;;;;;1.67;1.13;;;5.20;99.90;;;;;;5041949;28;20033;-80
2022/09/29 02:00:11;;;;;;;1.40;0.70;;;5.30;99.90;;;;;;5027486;28;20485;-79
2022/09/29 02:02:48;;;;;;;1.55;0.90;;;5.30;99.90;;;;;;5041664;28;20076;-79
2022/09/29 02:05:42;;;;;;;2.83;0.82;;;5.20;99.90;;;;;;5009253;28;20048;-79
2022/09/29 02:08:37;;;;;;;1.60;0.70;;;5.20;99.90;;;;;;5026360;28;20084;-81
2022/09/29 02:11:11;;;;;;;1.77;0.80;;;5.20;99.90;;;;;;5026589;28;20038;-79
2022/09/29 02:13:54;;;;;;;2.38;0.90;;;5.10;99.90;;;;;;5041816;28;20037;-78
2022/09/29 02:16:35;;;;;;;1.70;0.80;;;5.10;99.90;;;;;;5024707;28;20516;-77
2022/09/29 02:19:09;;;;;;;1.50;0.80;;;5.10;99.90;;;;;;5025087;28;20025;-79
2022/09/29 02:21:35;;;;;;;1.50;0.80;;;5.00;99.90;;;;;;5026626;28;20034;-79
2022/09/29 02:24:00;;;;;;;1.70;0.80;;;5.00;99.90;;;;;;5026279;28;20071;-78
2022/09/29 02:26:33;;;;;;;2.33;0.88;;;5.00;99.90;;;;;;5009408;28;20121;-79
2022/09/29 02:29:00;;;;;;;2.60;0.80;;;4.90;99.90;;;;;;5027396;28;20030;-80
2022/09/29 02:31:26;;;;;;;1.85;0.82;;;5.00;99.90;;;;;;5039931;28;20061;-78
2022/09/29 02:33:52;;;;;;;2.40;1.15;;;4.80;99.90;;;;;;5010007;28;20083;-77
2022/09/29 02:36:23;;;;;;;1.60;0.85;;;4.70;99.90;;;;;;5026332;28;20112;-80
2022/09/29 02:39:09;;;;;;;1.45;0.77;;;4.90;99.90;;;;;;5029802;28;20025;-79
2022/09/29 02:41:53;;;;;;;2.25;0.90;;;4.90;99.90;;;;;;5029582;28;20025;-79
2022/09/29 02:44:22;;;;;;;2.10;1.20;;;4.80;99.90;;;;;;5030395;28;20037;-79
2022/09/29 02:47:18;;;;;;;1.88;0.88;;;4.80;99.90;;;;;;5046511;28;20029;-78
2022/09/29 02:50:06;;;;;;;1.90;1.00;;;4.70;99.90;;;;;;5045728;28;20017;-79
2022/09/29 02:53:07;;;;;;;1.23;0.63;;;4.70;99.90;;;;;;5044677;28;20497;-79
2022/09/29 02:56:05;;;;;;;1.50;0.85;;;4.80;99.90;;;;;;5030690;28;20557;-80
2022/09/29 02:58:52;;;;;;;2.40;0.70;;;4.80;99.90;;;;;;5030117;28;20049;-79
2022/09/29 03:01:18;;;;;;;1.65;0.90;;;4.70;99.90;;;;;;5009553;28;20026;-79
2022/09/29 03:03:44;;;;;;;3.33;1.10;;;4.80;99.90;;;;;;5030694;28;20026;-79
2022/09/29 03:06:11;;;;;;;2.42;1.40;;;4.80;99.90;;;;;;5030381;28;20018;-78
2022/09/29 03:08:36;;;;;;;2.53;1.25;;;4.80;99.90;;;;;;5013502;28;20033;-80
2022/09/29 03:11:02;;;;;;;1.73;0.95;;;4.70;99.90;;;;;;5029201;28;20064;-79
2022/09/29 03:13:28;;;;;;;4.10;1.40;;;4.70;99.90;;;;;;5028764;28;20119;-80
2022/09/29 03:15:53;;;;;;;3.55;1.42;;;4.80;99.90;;;;;;5030449;28;20041;-79
2022/09/29 03:18:21;;;;;;;2.63;1.35;;;4.80;99.90;;;;;;5012278;28;20029;-79
2022/09/29 03:20:47;;;;;;;2.53;0.98;;;4.70;99.90;;;;;;5012109;28;20037;-78
2022/09/29 03:23:12;;;;;;;2.67;1.40;;;4.70;99.90;;;;;;5029105;28;20026;-77
2022/09/29 03:25:38;;;;;;;2.75;1.45;;;4.70;99.90;;;;;;5029123;28;20021;-80
2022/09/29 03:28:04;;;;;;;3.25;1.25;;;4.70;99.90;;;;;;5030099;28;20029;-77
2022/09/29 03:30:30;;;;;;;3.55;1.63;;;4.70;99.90;;;;;;5012336;28;20029;-79
2022/09/29 03:32:55;;;;;;;3.28;1.73;;;4.70;99.90;;;;;;5013040;28;20095;-79
2022/09/29 03:35:21;;;;;;;5.05;1.70;;;4.70;99.90;;;;;;5026643;28;20026;-78
2022/09/29 03:37:46;;;;;;;3.33;1.73;;;4.60;99.90;;;;;;5030469;28;20068;-79
2022/09/29 03:40:12;;;;;;;3.17;1.85;;;4.50;99.90;;;;;;5011866;28;20037;-79
2022/09/29 03:42:38;;;;;;;3.55;2.20;;;4.50;99.90;;;;;;5030167;28;20048;-80
2022/09/29 03:45:04;;;;;;;3.40;2.00;;;4.60;99.90;;;;;;5029699;28;20080;-79
2022/09/29 03:47:30;;;;;;;3.35;2.05;;;4.70;99.90;;;;;;5030576;28;20040;-79
2022/09/29 03:49:56;;;;;;;2.63;1.42;;;4.60;99.90;;;;;;5009201;28;20060;-78
2022/09/29 03:52:21;;;;;;;2.90;1.73;;;4.70;99.90;;;;;;5028342;28;20077;-79
2022/09/29 03:54:47;;;;;;;4.10;1.55;;;4.60;99.90;;;;;;5028477;28;20032;-77
2022/09/29 03:57:13;;;;;;;3.53;1.48;;;4.60;99.90;;;;;;5028644;28;20025;-80
2022/09/29 03:59:38;;;;;;;3.42;1.48;;;4.60;99.90;;;;;;5044819;28;20033;-79
2022/09/29 04:02:04;;;;;;;2.92;1.50;;;4.90;99.90;;;;;;5028626;28;20394;-79
2022/09/29 04:04:30;;;;;;;2.28;1.10;;;4.70;99.90;;;;;;5029478;28;20514;-78
2022/09/29 04:06:55;;;;;;;2.70;1.52;;;4.60;99.90;;;;;;5029722;28;20026;-77
2022/09/29 04:09:21;;;;;;;2.47;1.20;;;4.70;99.90;;;;;;5044534;28;20120;-78
2022/09/29 04:11:47;;;;;;;3.10;1.30;;;4.70;99.90;;;;;;5029973;28;20036;-79
2022/09/29 04:14:12;;;;;;;2.53;1.52;;;4.60;99.90;;;;;;5027264;28;20055;-80
2022/09/29 04:16:38;;;;;;;3.65;1.25;;;4.40;99.90;;;;;;5028293;28;20336;-80
2022/09/29 04:19:04;;;;;;;2.60;1.15;;;4.60;99.90;;;;;;5028359;28;20359;-79
2022/09/29 04:21:29;;;;;;;3.17;1.35;;;4.50;99.90;;;;;;5044370;28;20694;-77
2022/09/29 04:23:55;;;;;;;2.33;1.20;;;4.50;99.90;;;;;;5027978;28;20072;-78
2022/09/29 04:26:21;;;;;;;3.17;1.80;;;4.50;99.90;;;;;;5011397;28;20402;-80
2022/09/29 04:28:46;;;;;;;2.95;1.60;;;4.40;99.90;;;;;;5027308;28;20100;-78
2022/09/29 04:31:12;;;;;;;3.42;1.58;;;4.30;99.90;;;;;;5027702;28;20489;-78
2022/09/29 04:33:38;;;;;;;3.10;1.52;;;4.40;99.90;;;;;;5028448;28;20032;-79
2022/09/29 04:36:04;;;;;;;2.40;1.42;;;4.40;99.90;;;;;;5027467;28;20392;-77
2022/09/29 04:38:30;;;;;;;3.33;1.55;;;4.30;99.90;;;;;;5028004;28;20036;-78
2022/09/29 04:40:56;;;;;;;2.70;1.17;;;4.30;99.90;;;;;;5043802;28;20021;-80
2022/09/29 04:43:22;;;;;;;2.58;1.25;;;4.30;99.90;;;;;;5026741;28;20053;-77
2022/09/29 04:45:48;;;;;;;3.28;1.48;;;4.40;99.90;;;;;;5011545;28;20052;-77
2022/09/29 04:48:14;;;;;;;3.67;1.67;;;4.30;99.90;;;;;;5027321;28;20474;-79
2022/09/29 04:50:40;;;;;;;2.92;1.40;;;4.20;99.90;;;;;;5011224;28;20037;-78
2022/09/29 04:53:06;;;;;;;3.22;1.58;;;4.20;99.90;;;;;;5028026;28;20033;-78
2022/09/29 04:55:32;;;;;;;3.17;1.67;;;4.30;99.90;;;;;;5027309;28;20025;-79
2022/09/29 04:57:58;;;;;;;2.13;1.33;;;4.30;99.90;;;;;;5027647;28;20056;-78
2022/09/29 05:00:24;;;;;;;1.92;1.20;;;4.50;99.90;;;;;;5025403;28;20061;-79
2022/09/29 05:02:49;;;;;;;2.95;1.52;;;4.50;99.90;;;;;;5027501;28;20076;-78
2022/09/29 05:05:15;;;;;;;2.65;1.58;;;4.50;99.90;;;;;;5010652;28;20284;-78
2022/09/29 05:07:41;;;;;;;2.28;1.60;;;4.40;99.90;;;;;;5010530;28;20120;-77
2022/09/29 05:10:08;;;;;;;2.33;1.40;;;4.40;99.90;;;;;;5010660;28;20116;-77
2022/09/29 05:12:34;;;;;;;2.00;1.20;;;4.50;99.90;;;;;;5027203;28;20037;-79
2022/09/29 05:15:00;;;;;;;2.13;1.30;;;4.50;99.90;;;;;;5011478;28;20382;-78
2022/09/29 05:17:26;;;;;;;2.80;2.05;;;4.50;99.90;;;;;;5009902;28;20037;-79
2022/09/29 05:19:51;;;;;;;2.42;1.67;;;4.60;99.90;;;;;;5010571;28;20026;-77
2022/09/29 05:22:23;;;;;;;2.17;1.77;;;4.50;99.90;;;;;;5026280;28;20029;-78
2022/09/29 05:24:52;;;;;;;1.80;1.20;;;4.40;99.90;;;;;;5026635;28;20394;-79
2022/09/29 05:27:18;;;;;;;2.40;1.50;;;4.50;99.90;;;;;;5025513;28;20108;-78
2022/09/29 05:29:44;;;;;;;2.47;1.67;;;4.80;99.90;;;;;;5028159;28;20433;-78
2022/09/29 05:32:10;;;;;;;2.40;1.63;;;4.70;99.90;;;;;;5026152;28;21402;-78
2022/09/29 05:34:36;;;;;;;2.15;1.30;;;4.60;99.90;;;;;;5026734;28;20116;-79
2022/09/29 05:37:01;;;;;;;2.33;1.75;;;4.50;99.90;;;;;;5005418;28;20300;-79
2022/09/29 05:39:30;;;;;;;2.20;1.52;;;4.50;99.90;;;;;;5027226;28;20028;-79
2022/09/29 05:41:56;;;;;;;2.83;1.98;;;4.40;99.90;;;;;;5009929;28;20047;-79
2022/09/29 05:44:21;;;;;;;2.40;2.10;;;4.60;99.90;;;;;;5027771;28;20116;-79
2022/09/29 05:46:47;;;;;;;2.67;1.90;;;4.60;99.90;;;;;;5027839;28;20030;-77
2022/09/29 05:49:13;;;;;;;2.53;1.73;;;4.60;99.90;;;;;;5025444;28;20535;-77
2022/09/29 05:51:38;;;;;;;2.60;1.80;;;4.70;99.90;;;;;;5025493;28;20137;-77
2022/09/29 05:54:04;;;;;;;2.22;1.67;;;4.60;99.90;;;;;;5009508;28;20061;-79
2022/09/29 05:56:30;;;;;;;2.30;1.88;;;4.60;99.90;;;;;;5025531;28;20554;-77
2022/09/29 05:58:56;;;;;;;2.67;2.25;;;4.50;99.90;;;;;;5027706;28;20160;-77
2022/09/29 06:01:24;;;;;;;2.60;1.92;;;4.60;99.90;;;;;;5026174;28;20025;-77
2022/09/29 06:03:51;;;;;;;2.80;2.25;;;4.60;99.90;;;;;;5026839;28;20022;-78
2022/09/29 06:06:19;;;;;;;3.65;2.33;;;4.60;99.90;;;;;;5042041;28;20423;-77
2022/09/29 06:08:47;;;;;;;3.25;2.45;;;4.70;99.90;;;;;;5027099;28;20020;-78
2022/09/29 06:11:15;;;;;;;4.82;2.60;;;4.80;99.90;;;;;;5025729;28;20041;-79
2022/09/29 06:13:43;;;;;;;3.17;1.98;;;4.70;99.90;;;;;;5025635;28;20017;-77
2022/09/29 06:16:09;;;;;;;3.22;2.92;;;4.80;99.90;;;;;;5039761;28;20037;-79
2022/09/29 06:18:35;;;;;;;3.00;2.55;;;4.80;99.90;;;;;;5025725;28;20039;-78
2022/09/29 06:21:07;;;;;;;3.22;2.80;;;4.90;99.90;;;;;;5042097;28;20027;-78
2022/09/29 06:23:33;;;;;;;2.70;2.25;;;4.90;99.90;;;;;;5026626;28;20052;-79
2022/09/29 06:26:01;;;;;;;3.05;2.45;;;5.00;99.90;;;;;;5010028;28;20037;-78
2022/09/29 06:28:27;;;;;;;2.78;2.25;;;5.10;99.90;;;;;;5041829;28;20061;-78
2022/09/29 06:31:02;;;;;;;3.33;2.92;;;5.20;99.90;;;;;;5025636;28;20467;-78
2022/09/29 06:33:29;;;;;;;3.47;2.97;;;5.30;99.90;;;;;;5040571;28;20354;-78
2022/09/29 06:38:41;;;;;;;3.63;2.67;;;5.30;99.90;;;;;;5025432;28;20061;-77
2022/09/29 06:41:07;;;;;;;3.67;3.17;;;5.30;99.90;;;;;;5008628;28;20021;-78
2022/09/29 06:43:33;;;;;;;3.03;2.65;;;5.30;99.90;;;;;;5026841;28;20041;-79
2022/09/29 06:45:59;;;;;;;3.80;2.92;;;5.40;99.90;;;;;;5026731;28;20152;-77
2022/09/29 06:48:25;;;;;;;3.40;3.05;;;5.50;99.90;;;;;;5024539;28;20128;-78
2022/09/29 06:50:51;;;;;;;3.42;3.13;;;5.50;99.90;;;;;;5027041;28;20021;-78
2022/09/29 06:53:16;;;;;;;3.88;3.42;;;5.60;99.90;;;;;;5041900;28;20032;-77
2022/09/29 06:55:42;;;;;;;4.07;3.67;;;5.70;99.90;;;;;;5026533;28;20036;-78
2022/09/29 06:58:08;;;;;;;3.45;3.03;;;5.70;99.90;;;;;;5024892;28;20033;-77
2022/09/29 07:00:34;;;;;;;3.03;2.58;;;5.70;99.90;;;;;;5041787;28;20030;-77
2022/09/29 07:03:00;;;;;;;4.00;3.53;;;5.80;99.90;;;;;;5023840;28;20030;-79
2022/09/29 07:05:26;;;;;;;3.92;3.53;;;5.90;99.90;;;;;;5024785;28;20041;-79
2022/09/29 07:07:53;;;;;;;3.55;3.25;;;6.00;99.90;;;;;;5025473;28;20029;-78
2022/09/29 07:10:19;;;;;;;3.55;3.22;;;6.00;99.90;;;;;;5025956;28;20029;-78
2022/09/29 07:12:45;;;;;;;4.70;3.40;;;6.10;99.90;;;;;;5024809;28;20516;-77
2022/09/29 07:15:12;;;;;;;4.70;3.50;;;6.10;99.90;;;;;;5024101;28;20025;-78
2022/09/29 07:17:37;;;;;;;3.95;3.47;;;6.20;99.90;;;;;;5007994;28;20048;-78
2022/09/29 07:20:04;;;;;;;4.72;4.22;;;6.30;99.90;;;;;;5025177;28;20457;-78
2022/09/29 07:22:29;;;;;;;5.35;4.47;;;6.30;99.90;;;;;;5025619;28;20457;-78
2022/09/29 07:24:55;;;;;;;4.80;4.30;;;6.40;99.90;;;;;;5030318;28;20367;-81
2022/09/29 07:27:23;;;;;;;7.07;5.25;;;6.50;99.90;;;;;;5043937;28;20026;-81
2022/09/29 07:29:52;;;;;;;9.20;6.38;;;6.60;99.90;;;;;;5012177;28;20036;-78
2022/09/29 07:32:18;;;;;;;6.80;6.10;;;6.70;99.90;;;;;;5028008;28;20123;-78
2022/09/29 07:34:44;;;;;;;5.80;5.20;;;6.70;99.90;;;;;;5028905;28;20025;-78
2022/09/29 07:37:10;;;;;;;6.03;5.20;;;6.80;99.90;;;;;;5027467;28;20036;-78
2022/09/29 07:39:36;;;;;;;5.47;4.72;;;6.90;99.90;;;;;;5007905;28;20332;-79
2022/09/29 07:42:02;;;;;;;6.70;5.38;;;7.00;99.90;;;;;;5027912;28;20073;-78
2022/09/29 07:44:30;;;;;;;5.32;4.78;;;7.00;99.90;;;;;;5029464;28;20033;-79
2022/09/29 07:46:56;;;;;;;7.25;5.85;;;7.20;99.90;;;;;;5028570;28;20049;-79
2022/09/29 07:49:22;;;;;;;7.40;6.60;;;7.40;99.90;;;;;;5011252;28;20521;-78
2022/09/29 07:51:47;;;;;;;8.52;6.18;;;7.40;99.90;;;;;;5028236;28;20046;-78
2022/09/29 07:54:13;;;;;;;6.30;5.40;;;7.80;99.90;;;;;;5028259;28;20141;-79
2022/09/29 07:56:39;;;;;;;7.25;5.72;;;8.00;99.90;;;;;;5029687;28;20017;-79
2022/09/29 07:59:04;;;;;;;7.32;6.00;;;8.10;99.90;;;;;;5028967;28;20111;-79
2022/09/29 08:01:31;;;;;;;6.88;6.18;;;8.10;99.90;;;;;;5028020;28;20087;-78
2022/09/29 08:03:57;;;;;;;6.32;5.05;;;8.10;99.90;;;;;;5043878;28;20364;-80
2022/09/29 08:06:24;;;;;;;7.95;6.88;;;8.00;99.90;;;;;;5028799;28;20029;-79
2022/09/29 08:08:51;;;;;;;7.45;6.45;;;8.00;99.90;;;;;;5028092;28;20029;-78
2022/09/29 08:11:21;;;;;;;9.00;6.57;;;8.20;99.90;;;;;;5028195;28;20487;-78
2022/09/29 08:13:49;;;;;;;8.73;7.53;;;8.30;99.90;;;;;;5027346;28;20040;-78
2022/09/29 08:16:15;;;;;;;10.75;7.70;;;8.40;99.90;;;;;;5027090;28;20045;-81
2022/09/29 08:18:41;;;;;;;10.80;8.63;;;8.40;99.90;;;;;;5043607;28;20030;-79
2022/09/29 08:21:09;;;;;;;9.20;7.68;;;8.30;99.90;;;;;;5044406;28;20036;-79
2022/09/29 08:23:37;;;;;;;10.00;8.35;;;8.50;99.90;;;;;;5025988;28;20116;-79
2022/09/29 08:26:15;;;;;;;11.63;9.90;;;8.70;99.90;;;;;;5009932;28;20509;-78
2022/09/29 08:28:41;;;;;;;10.35;7.75;;;8.60;99.90;;;;;;5026449;28;20041;-79
2022/09/29 08:31:20;;;;;;;10.48;9.25;;;8.90;99.90;;;;;;5010857;28;20443;-78
2022/09/29 08:33:50;;;;;;;10.68;9.02;;;9.10;99.90;;;;;;5042642;28;20216;-78
2022/09/29 08:36:16;;;;;;;;;;;9.30;99.90;;;;;;5010623;28;20060;-78
2022/09/29 08:38:50;;;;;;;8.75;7.53;;;9.70;99.90;;;;;;5043879;28;19924;-79
2022/09/29 08:41:47;;;;;;;9.90;8.43;;;9.60;99.90;;;;;;5040968;28;20026;-80
2022/09/29 08:44:46;;;;;;;10.00;8.70;;;9.60;99.90;;;;;;5004780;28;20083;-78
2022/09/29 08:47:28;;;;;;;9.67;8.67;;;9.60;99.90;;;;;;4989871;28;20049;-79
2022/09/29 08:50:24;;;;;;;11.95;10.18;;;9.50;99.90;;;;;;5010415;28;20037;-79
2022/09/29 08:53:01;;;;;;;11.15;8.75;;;9.70;99.90;;;;;;5016672;28;20051;-79
2022/09/29 08:55:57;;;;;;;12.13;7.88;;;10.00;99.90;;;;;;5023494;28;20030;-78
2022/09/29 08:58:23;;;;;;;10.93;9.82;;;10.40;99.90;;;;;;5018355;28;20043;-78
2022/09/29 09:01:32;;;;;;;8.00;6.60;;;10.10;99.90;;;;;;5011232;28;20030;-78
2022/09/29 09:04:06;;;;;;;18.52;14.68;;;10.40;99.90;;;;;;5027880;28;20039;-77
2022/09/29 09:07:06;;;;;;;11.45;10.35;;;10.20;99.90;;;;;;5026039;28;20045;-79
2022/09/29 09:09:38;;;;;;;;;;;10.50;99.90;;;;;;5009627;28;20532;-78
2022/09/29 09:12:04;;;;;;;9.52;8.32;;;10.60;99.90;;;;;;5027907;28;19924;-80
2022/09/29 09:15:08;;;;;;;9.57;8.57;;;10.60;99.90;;;;;;5026273;28;20029;-78
2022/09/29 09:18:12;;;;;;;7.90;7.10;;;10.60;99.90;;;;;;5003290;28;20045;-80
2022/09/29 09:21:09;;;;;;;9.50;8.60;;;11.00;99.90;;;;;;5003929;28;20041;-79
2022/09/29 09:23:58;;;;;;;9.95;8.95;;;10.90;99.90;;;;;;5010308;28;20141;-79
2022/09/29 09:26:45;;;;;;;11.90;10.20;;;11.20;99.90;;;;;;5042419;28;20488;-79
2022/09/29 09:29:27;;;;;;;10.63;9.38;;;11.30;99.90;;;;;;5006024;28;20133;-79
2022/09/29 09:32:02;;;;;;;9.10;8.07;;;11.50;99.90;;;;;;5009394;28;20037;-79
2022/09/29 09:34:51;;;;;;;8.45;7.32;;;11.50;99.90;;;;;;5026054;28;20037;-79
2022/09/29 09:37:30;;;;;;;7.70;6.90;;;11.70;99.90;;;;;;5025868;28;20025;-81
2022/09/29 09:40:23;;;;;;;7.70;6.25;;;12.00;99.90;;;;;;5040539;28;20109;-79
2022/09/29 09:43:01;;;;;;;7.93;5.50;;;12.30;99.90;;;;;;5022685;28;20058;-79
2022/09/29 09:45:38;;;;;;;5.63;5.07;;;12.70;99.90;;;;;;5025032;28;20116;-79
2022/09/29 09:48:14;;;;;;;5.93;5.30;;;12.90;99.90;;;;;;5023982;28;20470;-79
2022/09/29 09:50:41;;;;;;;8.20;7.40;;;12.80;99.90;;;;;;5009458;28;20418;-79
2022/09/29 09:53:15;;;;;;;8.32;6.57;;;12.50;99.90;;;;;;5027341;28;20425;-81
2022/09/29 09:55:42;;;;;;;8.02;6.45;;;12.80;99.90;;;;;;5025272;28;20036;-79
2022/09/29 09:58:25;;;;;;;5.75;5.25;;;12.80;99.90;;;;;;5026178;28;20160;-80
2022/09/29 10:01:00;;;;;;;7.20;6.18;;;13.20;99.90;;;;;;5025794;28;20466;-82
2022/09/29 10:03:27;;;;;;;6.72;6.07;;;12.90;99.90;;;;;;5024079;28;20042;-80
2022/09/29 10:05:53;;;;;;;7.28;6.57;;;13.10;99.90;;;;;;5008920;28;20034;-82
2022/09/29 10:08:28;;;;;;;6.25;5.65;;;13.10;99.90;;;;;;5009193;28;20129;-80
2022/09/29 10:10:55;;;;;;;5.65;5.05;;;13.50;99.90;;;;;;5024782;28;20359;-81
2022/09/29 10:13:24;;;;;;;6.57;5.95;;;13.30;99.90;;;;;;5009267;28;20453;-80
2022/09/29 10:16:14;;;;;;;8.40;7.05;;;13.60;99.90;;;;;;5009091;28;20062;-80
2022/09/29 10:18:51;;;;;;;;;;;13.40;99.90;;;;;;5024808;28;20056;-79
2022/09/29 10:21:41;;;;;;;11.70;9.43;;;13.20;99.90;;;;;;5025013;28;19940;-80
2022/09/29 10:24:30;;;;;;;12.30;8.75;;;13.10;99.90;;;;;;5007690;28;20026;-81
2022/09/29 10:26:59;;;;;;;12.93;10.95;;;12.90;99.90;;;;;;5017782;28;20037;-81
2022/09/29 10:29:40;;;;;;;11.90;10.80;;;12.90;99.90;;;;;;5027048;28;20045;-82
2022/09/29 10:32:16;;;;;;;10.50;8.30;;;13.20;99.90;;;;;;5025750;28;20351;-81
2022/09/29 10:35:01;;;;;;;19.63;12.93;;;13.30;99.90;;;;;;5012721;28;20041;-82
2022/09/29 10:37:34;;;;;;;10.48;9.43;;;13.00;99.90;;;;;;5026045;28;20040;-82
2022/09/29 10:40:11;;;;;;;8.65;7.18;;;13.30;99.90;;;;;;5009098;28;20037;-80
2022/09/29 10:42:39;;;;;;;9.65;7.72;;;13.70;99.90;;;;;;5041807;28;20088;-81
2022/09/29 10:45:45;;;;;;;7.55;6.60;;;13.40;99.90;;;;;;5026618;28;20029;-80
2022/09/29 10:48:14;;;;;;;5.57;4.95;;;13.90;99.90;;;;;;5033794;28;20041;-81
2022/09/29 10:50:57;;;;;;;6.57;4.78;;;14.20;99.90;;;;;;5025922;28;20116;-80
2022/09/29 10:53:39;;;;;;;4.88;4.38;;;14.40;99.90;;;;;;5041642;28;20260;-81
2022/09/29 10:56:28;;;;;;;4.82;4.20;;;14.60;99.90;;;;;;5026684;28;20021;-82
2022/09/29 10:58:58;;;;;;;3.92;3.53;;;14.60;99.90;;;;;;5028134;28;20478;-81
2022/09/29 11:01:26;;;;;;;3.83;3.45;;;14.90;99.90;;;;;;5045182;28;20026;-81
2022/09/29 11:03:54;;;;;;;4.07;2.95;;;14.70;99.90;;;;;;5030806;28;20112;-81
2022/09/29 11:06:34;;;;;;;4.70;3.50;;;14.70;99.90;;;;;;5028935;28;20036;-80
2022/09/29 11:09:26;;;;;;;4.15;2.45;;;14.80;99.90;;;;;;5012358;28;20053;-80
2022/09/29 11:11:54;;;;;;;4.15;2.92;;;15.10;99.90;;;;;;5029193;28;20541;-81
2022/09/29 11:14:24;;;;;;;4.95;3.88;;;15.00;99.90;;;;;;5028784;28;20187;-81
2022/09/29 11:16:57;;;;;;;;;;;14.60;99.90;;;;;;5013249;28;20029;-82
2022/09/29 11:19:24;;;;;;;7.60;4.55;;;14.80;99.90;;;;;;5006455;28;19919;-81
2022/09/29 11:22:07;;;;;;;7.57;5.35;;;14.90;99.90;;;;;;5028881;28;20056;-81
2022/09/29 11:24:58;;;;;;;6.47;5.88;;;14.80;99.90;;;;;;5043946;28;20172;-82
2022/09/29 11:27:42;;;;;;;3.95;3.60;;;14.70;99.90;;;;;;5028511;28;20512;-79
2022/09/29 11:30:23;;;;;;;4.40;3.50;;;15.20;99.90;;;;;;5027628;28;20096;-80
2022/09/29 11:33:14;;;;;;;4.35;2.05;;;15.50;99.90;;;;;;5028827;28;20057;-81
2022/09/29 11:35:54;;;;;;;2.28;1.42;;;15.90;99.90;;;;;;5028406;28;20104;-80
2022/09/29 11:38:29;;;;;;;2.25;0.70;;;15.70;99.90;;;;;;5027037;28;20120;-80
2022/09/29 11:43:55;;;;;;;2.72;1.20;;;16.40;99.90;;;;;;5026315;28;20080;-83
2022/09/29 11:46:35;;;;;;;2.22;1.10;;;15.60;99.90;;;;;;5027451;28;20033;-81
2022/09/29 11:49:14;;;;;;;1.30;0.60;;;15.90;99.90;;;;;;5028438;28;20025;-82
2022/09/29 11:51:57;;;;;;;2.20;1.25;;;16.20;99.90;;;;;;5042705;28;20387;-82
2022/09/29 11:54:46;;;;;;;1.38;0.70;;;15.60;99.90;;;;;;5008578;28;20113;-82
2022/09/29 11:57:24;;;;;;;1.10;0.57;;;15.40;99.90;;;;;;5017624;28;20025;-82
2022/09/29 12:00:13;;;;;;;1.40;0.73;;;15.20;99.90;;;;;;5028934;28;20062;-81
2022/09/29 12:03:05;;;;;;;1.65;0.77;;;15.30;99.90;;;;;;5010641;28;20033;-82
2022/09/29 12:06:15;;;;;;;2.15;0.60;;;15.60;99.90;;;;;;5028410;28;20057;-81
2022/09/29 12:09:08;;;;;;;0.98;0.47;;;15.60;99.90;;;;;;5027179;28;20034;-83
2022/09/29 12:12:00;;;;;;;1.85;0.40;;;15.90;99.90;;;;;;5027842;28;20037;-82
2022/09/29 12:15:02;;;;;;;1.15;0.52;;;15.80;99.90;;;;;;5022215;28;20034;-82
2022/09/29 12:17:32;;;;;;;1.70;0.80;;;15.90;99.90;;;;;;5029163;28;20033;-82
2022/09/29 12:20:06;;;;;;;2.20;0.90;;;16.00;99.90;;;;;;5028704;28;20022;-82
2022/09/29 12:22:32;;;;;;;2.28;0.68;;;16.40;99.90;;;;;;5027240;28;20030;-83
2022/09/29 12:25:00;;;;;;;1.70;0.60;;;16.50;99.90;;;;;;5026741;28;20030;-82
2022/09/29 12:27:32;;;;;;;1.30;0.60;;;16.60;99.90;;;;;;5027187;28;20325;-83
2022/09/29 12:30:17;;;;;;;1.30;0.60;;;16.50;99.90;;;;;;5027292;28;20544;-81
2022/09/29 12:32:57;;;;;;;1.17;0.40;;;16.40;99.90;;;;;;5027838;28;20041;-81
2022/09/29 12:35:38;;;;;;;1.30;0.40;;;16.50;99.90;;;;;;5041631;28;20048;-81
2022/09/29 12:38:28;;;;;;;0.60;0.30;;;16.50;99.90;;;;;;5043666;28;20045;-82
2022/09/29 12:41:20;;;;;;;5.28;1.30;;;16.60;99.90;;;;;;5028853;28;20402;-82
2022/09/29 12:44:04;;;;;;;2.13;0.90;;;15.70;99.90;;;;;;5011918;28;20075;-83
2022/09/29 12:46:44;;;;;;;1.10;0.50;;;15.50;99.90;;;;;;5026061;28;20033;-81
2022/09/29 12:49:26;;;;;;;1.23;0.50;;;16.00;99.90;;;;;;5025134;28;20110;-81
2022/09/29 12:51:52;;;;;;;1.33;0.40;;;16.20;99.90;;;;;;5025232;28;20140;-79
2022/09/29 12:54:31;;;;;;;1.10;0.30;;;16.10;99.90;;;;;;5010700;28;20021;-82
2022/09/29 12:57:17;;;;;;;1.10;0.40;;;16.10;99.90;;;;;;5026500;28;20581;-82
2022/09/29 12:59:58;;;;;;;1.25;0.30;;;16.00;99.90;;;;;;5021715;28;20067;-81
2022/09/29 13:02:52;;;;;;;1.00;0.40;;;16.20;99.90;;;;;;5026816;28;20041;-81
2022/09/29 13:05:58;;;;;;;0.93;0.40;;;16.50;99.90;;;;;;5042009;28;20022;-81
2022/09/29 13:08:52;;;;;;;0.65;0.30;;;16.30;99.90;;;;;;5026613;28;20128;-81
2022/09/29 13:11:27;;;;;;;0.82;0.30;;;16.20;99.90;;;;;;4983342;28;20040;-82
2022/09/29 13:14:12;;;;;;;0.60;0.30;;;16.20;99.90;;;;;;5025975;28;20037;-80
2022/09/29 13:16:53;;;;;;;0.90;0.30;;;16.30;99.90;;;;;;5026599;28;20025;-80
2022/09/29 13:19:30;;;;;;;2.03;0.60;;;16.20;99.90;;;;;;5042377;28;20082;-80
2022/09/29 13:22:33;;;;;;;2.22;0.90;;;15.50;99.90;;;;;;5027926;28;20366;-81
2022/09/29 13:25:10;;;;;;;1.25;0.50;;;15.50;99.90;;;;;;5027189;28;20097;-82
2022/09/29 13:27:43;;;;;;;1.30;0.40;;;16.00;99.90;;;;;;5028070;28;20040;-81
2022/09/29 13:30:21;;;;;;;0.93;0.30;;;16.40;99.90;;;;;;5025829;28;20396;-80